createdAt,value
2022-12-31T00:01:40.960Z,100248.66
2022-12-31T00:04:07.433Z,100248.34
2022-12-31T00:06:35.952Z,100247.78
2022-12-31T00:09:05.311Z,100260.13
2022-12-31T00:11:32.777Z,100260.06
2022-12-31T00:13:59.821Z,100250.31
2022-12-31T00:16:32.306Z,100267.28
2022-12-31T00:19:00.560Z,100264.38
2022-12-31T00:21:31.656Z,100266.06
2022-12-31T00:23:57.993Z,100276.13
2022-12-31T00:26:29.735Z,100269.09
2022-12-31T00:28:57.644Z,100272.66
2022-12-31T00:31:26.876Z,100267.94
2022-12-31T00:33:53.605Z,100267.94
2022-12-31T00:36:23.054Z,100277.13
2022-12-31T00:38:51.910Z,100273.53
2022-12-31T00:41:20.094Z,100277.72
2022-12-31T00:43:47.187Z,100265.66
2022-12-31T00:46:14.312Z,100263.31
2022-12-31T00:48:41.008Z,100266.97
2022-12-31T00:51:10.289Z,100267.00
2022-12-31T00:53:37.208Z,100273.13
2022-12-31T00:56:05.977Z,100279.56
2022-12-31T00:58:33.364Z,100287.88
2022-12-31T01:01:08.422Z,100306.13
2022-12-31T01:03:35.025Z,100316.13
2022-12-31T01:06:01.736Z,100320.13
2022-12-31T01:08:28.141Z,100323.88
2022-12-31T01:11:13.450Z,100322.25
2022-12-31T01:13:39.845Z,100319.34
2022-12-31T01:16:10.865Z,100306.94
2022-12-31T01:18:37.708Z,100309.34
2022-12-31T01:21:07.010Z,100309.81
2022-12-31T01:23:34.135Z,100320.88
2022-12-31T01:26:03.960Z,100322.50
2022-12-31T01:28:30.934Z,100328.63
2022-12-31T01:30:57.869Z,100331.97
2022-12-31T01:33:24.308Z,100323.50
2022-12-31T01:35:51.868Z,100332.66
2022-12-31T01:38:18.272Z,100327.34
2022-12-31T01:40:44.672Z,100335.09
2022-12-31T01:43:19.977Z,100350.41
2022-12-31T01:45:49.850Z,100350.63
2022-12-31T01:48:22.489Z,100349.97
2022-12-31T01:50:49.858Z,100345.22
2022-12-31T01:53:18.122Z,100349.28
2022-12-31T01:55:56.190Z,100344.00
2022-12-31T01:58:37.928Z,100336.28
2022-12-31T02:01:05.316Z,100337.94
2022-12-31T02:03:31.859Z,100339.84
2022-12-31T02:06:06.821Z,100355.91
2022-12-31T02:08:41.634Z,100348.53
2022-12-31T02:11:23.912Z,100349.25
2022-12-31T02:13:56.520Z,100344.25
2022-12-31T02:16:36.768Z,100348.38
2022-12-31T02:19:32.764Z,100337.22
2022-12-31T02:22:30.331Z,100349.47
2022-12-31T02:25:18.412Z,100348.59
2022-12-31T02:28:26.882Z,100352.59
2022-12-31T02:31:01.172Z,100347.44
2022-12-31T02:33:41.126Z,100346.06
2022-12-31T02:36:17.143Z,100341.19
2022-12-31T02:38:47.848Z,100341.59
2022-12-31T02:41:36.735Z,100338.13
2022-12-31T02:44:24.953Z,100353.56
2022-12-31T02:47:13.599Z,100342.06
2022-12-31T02:50:09.683Z,100341.25
2022-12-31T02:53:20.180Z,100347.81
2022-12-31T03:04:35.755Z,100333.66
2022-12-31T03:07:05.610Z,100343.56
2022-12-31T03:09:33.096Z,100338.31
2022-12-31T03:12:19.378Z,100337.81
2022-12-31T03:14:45.792Z,100335.00
2022-12-31T03:17:12.287Z,100339.69
2022-12-31T03:19:57.283Z,100335.44
2022-12-31T03:22:29.698Z,100338.22
2022-12-31T03:25:20.772Z,100335.75
2022-12-31T03:27:47.818Z,100341.03
2022-12-31T03:30:16.806Z,100331.59
2022-12-31T03:32:45.011Z,100323.69
2022-12-31T03:35:20.208Z,100328.91
2022-12-31T03:37:48.124Z,100324.88
2022-12-31T03:40:16.007Z,100318.97
2022-12-31T03:42:42.616Z,100319.81
2022-12-31T03:45:10.584Z,100321.44
2022-12-31T03:47:37.003Z,100304.44
2022-12-31T03:50:04.998Z,100306.94
2022-12-31T03:52:31.387Z,100288.03
2022-12-31T03:54:57.804Z,100286.91
2022-12-31T03:57:24.290Z,100290.97
2022-12-31T03:59:50.868Z,100290.25
2022-12-31T04:02:26.347Z,100289.63
2022-12-31T04:04:54.834Z,100297.09
2022-12-31T04:07:21.257Z,100298.06
2022-12-31T04:09:47.671Z,100308.41
2022-12-31T04:12:14.129Z,100304.78
2022-12-31T04:14:40.625Z,100306.47
2022-12-31T04:17:07.066Z,100309.47
2022-12-31T04:19:33.478Z,100312.59
2022-12-31T04:21:59.918Z,100318.41
2022-12-31T04:24:26.494Z,100318.72
2022-12-31T04:26:52.900Z,100320.09
2022-12-31T04:29:19.328Z,100326.31
2022-12-31T04:31:45.741Z,100306.22
2022-12-31T04:34:12.163Z,100316.53
2022-12-31T04:36:38.549Z,100309.47
2022-12-31T04:39:04.949Z,100301.88
2022-12-31T04:41:31.367Z,100292.00
2022-12-31T04:43:59.013Z,100291.78
2022-12-31T04:46:30.621Z,100273.28
2022-12-31T04:48:57.855Z,100259.13
2022-12-31T04:51:25.656Z,100257.28
2022-12-31T04:53:52.118Z,100257.16
2022-12-31T04:56:18.946Z,100259.06
2022-12-31T04:58:45.642Z,100257.50
2022-12-31T05:01:12.653Z,100250.63
2022-12-31T05:03:39.201Z,100249.38
2022-12-31T05:06:08.569Z,100243.13
2022-12-31T05:08:36.175Z,100258.31
2022-12-31T05:11:03.061Z,100266.44
2022-12-31T05:13:33.306Z,100268.63
2022-12-31T05:16:01.107Z,100273.41
2022-12-31T05:18:27.962Z,100278.41
2022-12-31T05:20:54.374Z,100277.53
2022-12-31T05:23:20.841Z,100276.81
2022-12-31T05:25:48.159Z,100271.63
2022-12-31T05:28:16.020Z,100284.19
2022-12-31T05:30:43.403Z,100270.38
2022-12-31T05:33:10.483Z,100259.97
2022-12-31T05:35:37.212Z,100251.03
2022-12-31T05:38:03.809Z,100234.94
2022-12-31T05:40:30.705Z,100229.84
2022-12-31T05:42:57.419Z,100225.69
2022-12-31T05:45:30.166Z,100210.00
2022-12-31T05:47:57.277Z,100217.38
2022-12-31T05:50:23.685Z,100218.22
2022-12-31T05:52:55.226Z,100208.72
2022-12-31T05:55:21.624Z,100205.94
2022-12-31T05:57:48.023Z,100212.78
2022-12-31T06:00:14.899Z,100206.78
2022-12-31T06:02:41.929Z,100195.22
2022-12-31T06:05:09.090Z,100199.59
2022-12-31T06:07:38.357Z,100201.38
2022-12-31T06:10:05.503Z,100195.94
2022-12-31T06:12:35.438Z,100194.13
2022-12-31T06:15:01.935Z,100195.22
2022-12-31T06:17:31.940Z,100188.28
2022-12-31T06:19:59.738Z,100193.06
2022-12-31T06:22:26.473Z,100181.72
2022-12-31T06:24:52.864Z,100176.31
2022-12-31T06:27:19.282Z,100187.25
2022-12-31T06:29:45.760Z,100188.69
2022-12-31T06:32:12.548Z,100194.84
2022-12-31T06:34:38.952Z,100205.44
2022-12-31T06:37:05.364Z,100214.34
2022-12-31T06:39:31.789Z,100196.38
2022-12-31T06:41:58.213Z,100179.09
2022-12-31T06:44:24.641Z,100176.00
2022-12-31T06:46:51.370Z,100187.59
2022-12-31T06:49:17.816Z,100183.69
2022-12-31T06:51:46.015Z,100189.91
2022-12-31T06:54:13.168Z,100179.16
2022-12-31T06:56:42.885Z,100185.00
2022-12-31T06:59:24.471Z,100192.16
2022-12-31T07:02:07.469Z,100179.75
2022-12-31T07:04:46.937Z,100181.03
2022-12-31T07:07:26.169Z,100178.41
2022-12-31T07:10:03.656Z,100174.00
2022-12-31T07:12:43.899Z,100163.59
2022-12-31T07:15:16.324Z,100177.72
2022-12-31T07:18:14.851Z,100178.56
2022-12-31T07:20:41.526Z,100169.22
2022-12-31T07:23:08.257Z,100162.47
2022-12-31T07:25:36.652Z,100174.94
2022-12-31T07:28:20.175Z,100176.47
2022-12-31T07:30:59.565Z,100175.69
2022-12-31T07:33:39.880Z,100170.25
2022-12-31T07:36:30.260Z,100168.78
2022-12-31T07:39:05.621Z,100165.69
2022-12-31T07:42:03.321Z,100173.03
2022-12-31T07:44:38.368Z,100181.84
2022-12-31T07:47:12.468Z,100191.94
2022-12-31T07:49:42.812Z,100189.81
2022-12-31T07:52:09.613Z,100194.94
2022-12-31T07:54:36.077Z,100198.06
2022-12-31T07:57:02.526Z,100203.91
2022-12-31T08:00:01.803Z,100197.66
2022-12-31T08:03:10.360Z,100214.56
2022-12-31T08:05:58.065Z,100211.47
2022-12-31T08:08:36.232Z,100209.16
2022-12-31T08:11:17.836Z,100215.09
2022-12-31T08:13:45.207Z,100216.13
2022-12-31T08:16:13.136Z,100201.91
2022-12-31T08:18:40.021Z,100203.13
2022-12-31T08:21:21.407Z,100210.56
2022-12-31T08:24:12.676Z,100208.25
2022-12-31T08:26:52.790Z,100207.63
2022-12-31T08:29:38.250Z,100214.28
2022-12-31T08:32:16.833Z,100199.03
2022-12-31T08:35:05.009Z,100212.47
2022-12-31T08:37:58.302Z,100203.88
2022-12-31T08:40:38.299Z,100207.34
2022-12-31T08:43:16.977Z,100208.84
2022-12-31T08:45:52.105Z,100211.81
2022-12-31T08:48:39.296Z,100196.59
2022-12-31T08:51:06.293Z,100214.84
2022-12-31T08:53:33.094Z,100221.16
2022-12-31T08:56:38.725Z,100219.81
2022-12-31T08:59:26.624Z,100225.97
2022-12-31T09:01:55.838Z,100229.47
2022-12-31T09:04:45.941Z,100237.78
2022-12-31T09:07:13.945Z,100243.56
2022-12-31T09:09:54.802Z,100233.78
2022-12-31T09:12:41.859Z,100221.00
2022-12-31T09:15:15.124Z,100235.44
2022-12-31T09:17:50.618Z,100231.00
2022-12-31T09:20:42.356Z,100236.16
2022-12-31T09:23:11.537Z,100237.47
2022-12-31T09:25:46.752Z,100224.84
2022-12-31T09:28:19.664Z,100217.56
2022-12-31T09:30:50.783Z,100234.81
2022-12-31T09:33:32.944Z,100226.81
2022-12-31T09:36:05.456Z,100228.81
2022-12-31T09:38:52.548Z,100225.66
2022-12-31T09:41:52.712Z,100227.31
2022-12-31T09:45:05.133Z,100219.19
2022-12-31T09:47:46.553Z,100213.84
2022-12-31T09:50:29.947Z,100210.81
2022-12-31T09:53:08.029Z,100219.28
2022-12-31T09:55:45.529Z,100226.88
2022-12-31T09:58:36.444Z,100210.59
2022-12-31T10:01:14.080Z,100226.53
2022-12-31T10:03:46.596Z,100229.50
2022-12-31T10:06:25.921Z,100222.66
2022-12-31T10:09:30.071Z,100219.00
2022-12-31T10:12:26.812Z,100230.81
2022-12-31T10:15:10.069Z,100229.28
2022-12-31T10:18:09.319Z,100231.63
2022-12-31T10:20:56.675Z,100249.72
2022-12-31T10:23:43.558Z,100246.19
2022-12-31T10:26:28.448Z,100256.69
2022-12-31T10:29:25.529Z,100283.44
2022-12-31T10:32:19.790Z,100284.94
2022-12-31T10:35:11.784Z,100294.28
2022-12-31T10:37:52.847Z,100305.41
2022-12-31T10:40:26.757Z,100321.72
2022-12-31T10:43:26.357Z,100310.94
2022-12-31T10:46:34.892Z,100323.72
2022-12-31T10:49:41.777Z,100315.94
2022-12-31T10:52:38.187Z,100317.59
2022-12-31T10:55:44.578Z,100322.94
2022-12-31T10:58:39.760Z,100327.25
2022-12-31T11:01:24.199Z,100322.94
2022-12-31T11:04:34.133Z,100317.78
2022-12-31T11:07:36.733Z,100322.09
2022-12-31T11:10:21.578Z,100323.09
2022-12-31T11:13:38.270Z,100330.53
2022-12-31T11:16:33.293Z,100332.38
2022-12-31T11:19:29.944Z,100327.41
2022-12-31T11:22:24.928Z,100327.75
2022-12-31T11:25:11.399Z,100314.63
2022-12-31T11:28:13.662Z,100311.28
2022-12-31T11:31:05.089Z,100310.31
2022-12-31T11:33:53.073Z,100302.34
2022-12-31T11:36:19.484Z,100303.81
2022-12-31T11:39:12.292Z,100299.00
2022-12-31T11:42:20.543Z,100293.47
2022-12-31T11:44:57.489Z,100286.00
2022-12-31T11:48:29.183Z,100280.22
2022-12-31T11:51:39.516Z,100282.00
2022-12-31T11:54:32.573Z,100288.78
2022-12-31T11:57:16.176Z,100283.09
2022-12-31T11:59:42.566Z,100282.94
2022-12-31T12:02:32.116Z,100274.41
2022-12-31T12:05:08.270Z,100270.66
2022-12-31T12:07:36.893Z,100280.78
2022-12-31T12:10:14.965Z,100277.19
2022-12-31T12:12:42.514Z,100269.97
2022-12-31T12:15:16.829Z,100281.59
2022-12-31T12:17:43.538Z,100277.19
2022-12-31T12:20:24.588Z,100271.34
2022-12-31T12:22:53.275Z,100279.84
2022-12-31T12:25:23.757Z,100273.72
2022-12-31T12:27:50.165Z,100279.50
2022-12-31T12:30:26.795Z,100275.16
2022-12-31T12:32:55.915Z,100289.69
2022-12-31T12:35:36.136Z,100278.00
2022-12-31T12:38:13.458Z,100278.47
2022-12-31T12:40:40.667Z,100256.31
2022-12-31T12:43:22.531Z,100272.47
2022-12-31T12:45:52.048Z,100267.81
2022-12-31T12:48:29.710Z,100276.81
2022-12-31T12:50:56.128Z,100264.19
2022-12-31T12:53:46.505Z,100275.13
2022-12-31T12:56:24.798Z,100269.47
2022-12-31T12:59:09.926Z,100261.59
2022-12-31T13:01:53.662Z,100287.25
2022-12-31T13:04:42.066Z,100276.94
2022-12-31T13:07:52.587Z,100281.41
2022-12-31T13:10:51.330Z,100270.00
2022-12-31T13:13:48.697Z,100278.97
2022-12-31T13:16:34.939Z,100274.84
2022-12-31T13:19:22.316Z,100280.91
2022-12-31T13:22:12.152Z,100292.94
2022-12-31T13:25:01.866Z,100292.44
2022-12-31T13:27:35.618Z,100290.31
2022-12-31T13:30:04.660Z,100296.09
2022-12-31T13:32:40.732Z,100294.66
2022-12-31T13:35:32.899Z,100286.78
2022-12-31T13:38:07.012Z,100305.56
2022-12-31T13:41:00.226Z,100311.56
2022-12-31T13:43:50.708Z,100298.78
2022-12-31T13:46:40.150Z,100315.69
2022-12-31T13:49:18.701Z,100328.66
2022-12-31T13:51:47.874Z,100344.56
2022-12-31T13:54:44.737Z,100355.31
2022-12-31T13:57:23.504Z,100368.03
2022-12-31T13:59:57.019Z,100368.38
2022-12-31T14:02:37.826Z,100367.66
2022-12-31T14:05:19.218Z,100386.59
2022-12-31T14:07:53.990Z,100381.44
2022-12-31T14:10:34.359Z,100391.63
2022-12-31T14:13:35.189Z,100405.78
2022-12-31T14:16:17.151Z,100406.78
2022-12-31T14:19:02.338Z,100405.78
2022-12-31T14:21:38.001Z,100405.78
2022-12-31T14:24:27.362Z,100407.16
2022-12-31T14:26:58.621Z,100410.34
2022-12-31T14:29:37.319Z,100415.56
2022-12-31T14:32:36.941Z,100410.81
2022-12-31T14:35:21.249Z,100419.47
2022-12-31T14:38:03.103Z,100421.31
2022-12-31T14:40:56.721Z,100425.34
2022-12-31T14:43:40.407Z,100430.50
2022-12-31T14:46:33.028Z,100433.72
2022-12-31T14:49:16.028Z,100425.41
2022-12-31T14:51:45.227Z,100437.53
2022-12-31T14:54:28.970Z,100433.72
2022-12-31T14:56:55.759Z,100440.75
2022-12-31T14:59:28.912Z,100443.56
2022-12-31T15:01:58.187Z,100439.09
2022-12-31T15:04:45.307Z,100442.88
2022-12-31T15:07:46.830Z,100438.69
2022-12-31T15:10:22.348Z,100445.84
2022-12-31T15:13:12.120Z,100438.19
2022-12-31T15:16:02.633Z,100435.25
2022-12-31T15:18:42.689Z,100445.41
2022-12-31T15:21:24.998Z,100443.59
2022-12-31T15:23:51.528Z,100453.38
2022-12-31T15:26:26.789Z,100446.28
2022-12-31T15:29:00.314Z,100456.72
2022-12-31T15:31:28.624Z,100453.03
2022-12-31T15:34:23.023Z,100444.09
2022-12-31T15:36:58.451Z,100452.22
2022-12-31T15:39:48.233Z,100447.72
2022-12-31T15:42:39.215Z,100445.97
2022-12-31T15:45:23.021Z,100438.66
2022-12-31T15:47:56.649Z,100439.47
2022-12-31T15:50:29.571Z,100447.78
2022-12-31T15:52:59.923Z,100453.44
2022-12-31T15:55:32.328Z,100453.66
2022-12-31T15:58:05.190Z,100457.50
2022-12-31T16:00:57.221Z,100470.84
2022-12-31T16:03:25.769Z,100467.47
2022-12-31T16:05:57.403Z,100470.81
2022-12-31T16:08:28.335Z,100473.91
2022-12-31T16:10:55.309Z,100481.28
2022-12-31T16:13:25.310Z,100481.13
2022-12-31T16:15:57.562Z,100469.81
2022-12-31T16:18:23.986Z,100479.78
2022-12-31T16:21:00.097Z,100471.47
2022-12-31T16:23:30.293Z,100465.81
2022-12-31T16:26:01.468Z,100476.78
2022-12-31T16:28:32.576Z,100476.44
2022-12-31T16:31:02.880Z,100474.91
2022-12-31T16:33:32.382Z,100480.09
2022-12-31T16:36:04.834Z,100475.94
2022-12-31T16:38:37.916Z,100489.06
2022-12-31T16:41:18.533Z,100486.53
2022-12-31T16:43:46.958Z,100488.72
2022-12-31T16:46:27.432Z,100489.75
2022-12-31T16:49:00.165Z,100500.66
2022-12-31T16:51:39.034Z,100480.03
2022-12-31T16:54:21.445Z,100486.53
2022-12-31T16:56:48.001Z,100485.22
2022-12-31T16:59:35.460Z,100492.72
2022-12-31T17:02:05.148Z,100497.22
2022-12-31T17:04:31.681Z,100498.06
2022-12-31T17:07:27.948Z,100496.00
2022-12-31T17:10:06.688Z,100498.66
2022-12-31T17:13:16.995Z,100497.56
2022-12-31T17:15:41.071Z,100503.34
2022-12-31T17:18:13.702Z,100501.06
2022-12-31T17:20:40.220Z,100507.50
2022-12-31T17:23:09.160Z,100498.19
2022-12-31T17:25:38.570Z,100505.03
2022-12-31T17:28:22.198Z,100501.66
2022-12-31T17:30:49.001Z,100495.69
2022-12-31T17:33:21.445Z,100505.19
2022-12-31T17:36:14.444Z,100511.81
2022-12-31T17:38:42.195Z,100505.69
2022-12-31T17:41:08.541Z,100515.31
2022-12-31T17:43:38.970Z,100515.66
2022-12-31T17:46:13.977Z,100520.16
2022-12-31T17:48:41.536Z,100511.00
2022-12-31T17:51:08.164Z,100516.81
2022-12-31T17:53:34.906Z,100511.97
2022-12-31T17:56:07.329Z,100520.31
2022-12-31T17:58:43.372Z,100514.03
2022-12-31T18:01:13.455Z,100520.84
2022-12-31T18:03:40.128Z,100512.00
2022-12-31T18:06:14.506Z,100518.84
2022-12-31T18:08:42.849Z,100531.50
2022-12-31T18:11:19.850Z,100534.16
2022-12-31T18:13:46.649Z,100531.66
2022-12-31T18:16:13.565Z,100516.03
2022-12-31T18:18:41.989Z,100523.69
2022-12-31T18:21:16.694Z,100522.84
2022-12-31T18:23:47.994Z,100520.84
2022-12-31T18:26:16.881Z,100532.34
2022-12-31T18:28:43.450Z,100540.03
2022-12-31T18:31:18.918Z,100535.69
2022-12-31T18:33:46.838Z,100543.31
2022-12-31T18:36:15.521Z,100538.50
2022-12-31T18:38:42.153Z,100544.34
2022-12-31T18:41:16.588Z,100550.81
2022-12-31T18:43:43.164Z,100544.66
2022-12-31T18:46:15.364Z,100549.66
2022-12-31T18:48:42.006Z,100548.34
2022-12-31T18:51:18.321Z,100544.34
2022-12-31T18:53:47.902Z,100555.66
2022-12-31T18:56:17.233Z,100550.00
2022-12-31T18:58:44.760Z,100549.16
2022-12-31T19:01:35.334Z,100559.13
2022-12-31T19:04:27.580Z,100548.47
2022-12-31T19:06:55.222Z,100551.47
2022-12-31T19:09:47.163Z,100560.28
2022-12-31T19:12:13.356Z,100549.81
2022-12-31T19:14:39.878Z,100563.47
2022-12-31T19:19:31.612Z,100548.00
2022-12-31T19:21:58.051Z,100560.13
2022-12-31T19:24:26.705Z,100552.19
2022-12-31T19:26:54.298Z,100549.34
2022-12-31T19:29:26.113Z,100555.31
2022-12-31T19:31:58.456Z,100542.38
2022-12-31T19:34:30.606Z,100545.88
2022-12-31T19:36:57.000Z,100537.38
2022-12-31T19:39:23.426Z,100543.88
2022-12-31T19:41:56.581Z,100536.53
2022-12-31T19:44:25.281Z,100530.38
2022-12-31T19:46:51.726Z,100525.09
2022-12-31T19:49:24.174Z,100532.56
2022-12-31T19:51:56.074Z,100538.72
2022-12-31T19:54:25.424Z,100534.56
2022-12-31T19:56:51.883Z,100529.25
2022-12-31T19:59:18.317Z,100539.53
2022-12-31T20:01:44.820Z,100529.41
2022-12-31T20:04:11.273Z,100536.22
2022-12-31T20:06:40.810Z,100555.34
2022-12-31T20:09:07.251Z,100543.38
2022-12-31T20:11:33.794Z,100545.84
2022-12-31T20:14:00.217Z,100549.69
2022-12-31T20:16:26.977Z,100552.69
2022-12-31T20:18:53.585Z,100548.19
2022-12-31T20:21:26.285Z,100559.66
2022-12-31T20:23:56.233Z,100553.66
2022-12-31T20:26:23.803Z,100548.19
2022-12-31T20:28:51.066Z,100551.34
2022-12-31T20:31:21.375Z,100559.16
2022-12-31T20:33:48.092Z,100550.38
2022-12-31T20:36:16.095Z,100553.50
2022-12-31T20:38:45.668Z,100557.50
2022-12-31T20:41:18.010Z,100551.34
2022-12-31T20:43:48.527Z,100531.03
2022-12-31T20:46:24.766Z,100543.50
2022-12-31T20:48:53.363Z,100534.06
2022-12-31T20:51:22.188Z,100533.03
2022-12-31T20:53:51.231Z,100532.38
2022-12-31T20:56:18.734Z,100539.38
2022-12-31T20:58:45.217Z,100544.34
2022-12-31T21:01:12.373Z,100545.19
2022-12-31T21:06:28.768Z,100539.16
2022-12-31T21:08:57.384Z,100549.66
2022-12-31T21:11:42.329Z,100548.50
2022-12-31T21:14:08.856Z,100546.81
2022-12-31T21:16:35.489Z,100562.97
2022-12-31T21:19:02.167Z,100547.31
2022-12-31T21:21:28.582Z,100536.34
2022-12-31T21:23:55.004Z,100547.63
2022-12-31T21:26:21.413Z,100548.97
2022-12-31T21:28:47.818Z,100554.31
2022-12-31T21:31:14.822Z,100561.13
2022-12-31T21:33:47.725Z,100559.47
2022-12-31T21:36:15.070Z,100555.81
2022-12-31T21:38:41.515Z,100559.28
2022-12-31T21:41:09.203Z,100562.94
2022-12-31T21:43:35.670Z,100568.97
2022-12-31T21:46:04.840Z,100568.59
2022-12-31T21:48:34.120Z,100575.25
2022-12-31T21:51:12.843Z,100573.28
2022-12-31T21:53:39.584Z,100581.94
2022-12-31T21:56:09.418Z,100581.09
2022-12-31T21:59:07.816Z,100566.94
2022-12-31T22:02:03.708Z,100566.63
2022-12-31T22:07:16.653Z,100580.44
2022-12-31T22:09:43.091Z,100598.06
2022-12-31T22:12:09.666Z,100585.44
2022-12-31T22:14:36.082Z,100588.75
2022-12-31T22:17:02.481Z,100595.22
2022-12-31T22:19:28.878Z,100596.72
2022-12-31T22:21:55.279Z,100591.94
2022-12-31T22:24:21.715Z,100596.75
2022-12-31T22:26:48.134Z,100584.59
2022-12-31T22:29:14.699Z,100593.56
2022-12-31T22:31:41.146Z,100596.25
2022-12-31T22:34:08.762Z,100596.06
2022-12-31T22:36:35.284Z,100607.56
2022-12-31T22:39:01.711Z,100613.03
2022-12-31T22:41:28.581Z,100611.88
2022-12-31T22:44:03.508Z,100608.69
2022-12-31T22:46:30.513Z,100613.03
2022-12-31T22:48:58.692Z,100601.06
2022-12-31T22:51:28.090Z,100608.06
2022-12-31T22:54:14.608Z,100611.19
2022-12-31T22:56:41.229Z,100599.38
2022-12-31T22:59:07.757Z,100617.03
2022-12-31T23:01:34.463Z,100614.34
2022-12-31T23:04:01.128Z,100624.84
2022-12-31T23:06:28.694Z,100624.34
2022-12-31T23:09:14.611Z,100629.81
2022-12-31T23:11:43.020Z,100635.47
2022-12-31T23:14:59.155Z,100618.50
2022-12-31T23:17:45.386Z,100634.81
2022-12-31T23:20:39.994Z,100626.84
2022-12-31T23:23:14.597Z,100626.69
2022-12-31T23:25:47.216Z,100625.34
2022-12-31T23:28:16.061Z,100625.00
2022-12-31T23:30:43.058Z,100625.81
2022-12-31T23:33:15.289Z,100625.19
2022-12-31T23:35:41.901Z,100632.31
2022-12-31T23:38:08.345Z,100617.53
2022-12-31T23:40:34.792Z,100623.81
2022-12-31T23:43:06.594Z,100645.44
2022-12-31T23:45:33.868Z,100640.97
2022-12-31T23:48:00.582Z,100647.44
2022-12-31T23:50:27.078Z,100654.59
2022-12-31T23:52:53.950Z,100654.22
2022-12-31T23:55:20.448Z,100655.56
2022-12-31T23:57:46.928Z,100663.03
